sensor_id;sensor_type;location;lat;lon;timestamp;P1;durP1;ratioP1;P2;durP2;ratioP2
28926;SDS011;16038;47.692;9.400;2022-09-12T00:02:03;5.68;;;3.33;;
28926;SDS011;16038;47.692;9.400;2022-09-12T00:04:29;4.63;;;3.15;;
28926;SDS011;16038;47.692;9.400;2022-09-12T00:06:54;4.65;;;2.80;;
28926;SDS011;16038;47.692;9.400;2022-09-12T00:09:20;5.07;;;3.30;;
28926;SDS011;16038;47.692;9.400;2022-09-12T00:11:46;4.25;;;3.20;;
28926;SDS011;16038;47.692;9.400;2022-09-12T00:14:15;4.95;;;2.67;;
28926;SDS011;16038;47.692;9.400;2022-09-12T00:16:42;4.22;;;2.65;;
28926;SDS011;16038;47.692;9.400;2022-09-12T00:19:08;6.60;;;2.75;;
28926;SDS011;16038;47.692;9.400;2022-09-12T00:21:35;5.97;;;2.78;;
28926;SDS011;16038;47.692;9.400;2022-09-12T00:24:01;4.85;;;2.95;;
28926;SDS011;16038;47.692;9.400;2022-09-12T00:26:27;6.45;;;2.90;;
28926;SDS011;16038;47.692;9.400;2022-09-12T00:28:53;7.93;;;2.83;;
28926;SDS011;16038;47.692;9.400;2022-09-12T00:31:20;5.70;;;2.67;;
28926;SDS011;16038;47.692;9.400;2022-09-12T00:33:48;3.92;;;2.50;;
28926;SDS011;16038;47.692;9.400;2022-09-12T00:36:15;4.70;;;2.20;;
28926;SDS011;16038;47.692;9.400;2022-09-12T00:38:42;5.75;;;3.05;;
28926;SDS011;16038;47.692;9.400;2022-09-12T00:41:16;3.88;;;2.65;;
28926;SDS011;16038;47.692;9.400;2022-09-12T00:43:44;9.80;;;3.08;;
28926;SDS011;16038;47.692;9.400;2022-09-12T00:48:53;4.07;;;3.00;;
28926;SDS011;16038;47.692;9.400;2022-09-12T00:51:23;4.70;;;2.60;;
28926;SDS011;16038;47.692;9.400;2022-09-12T00:53:50;4.60;;;2.60;;
28926;SDS011;16038;47.692;9.400;2022-09-12T00:56:17;6.30;;;2.83;;
28926;SDS011;16038;47.692;9.400;2022-09-12T00:58:50;6.60;;;2.90;;
28926;SDS011;16038;47.692;9.400;2022-09-12T01:03:50;7.95;;;2.67;;
28926;SDS011;16038;47.692;9.400;2022-09-12T01:06:35;4.97;;;2.58;;
28926;SDS011;16038;47.692;9.400;2022-09-12T01:09:03;4.97;;;2.72;;
28926;SDS011;16038;47.692;9.400;2022-09-12T01:11:35;4.78;;;2.85;;
28926;SDS011;16038;47.692;9.400;2022-09-12T01:14:03;5.00;;;2.90;;
28926;SDS011;16038;47.692;9.400;2022-09-12T01:16:29;3.53;;;2.60;;
28926;SDS011;16038;47.692;9.400;2022-09-12T01:24:36;7.68;;;2.70;;
28926;SDS011;16038;47.692;9.400;2022-09-12T01:32:50;5.40;;;2.70;;
28926;SDS011;16038;47.692;9.400;2022-09-12T01:43:35;4.28;;;2.80;;
28926;SDS011;16038;47.692;9.400;2022-09-12T01:46:15;5.20;;;3.00;;
28926;SDS011;16038;47.692;9.400;2022-09-12T01:48:53;6.07;;;2.88;;
28926;SDS011;16038;47.692;9.400;2022-09-12T01:54:08;3.88;;;2.50;;
28926;SDS011;16038;47.692;9.400;2022-09-12T01:56:39;7.43;;;3.33;;
28926;SDS011;16038;47.692;9.400;2022-09-12T01:59:17;7.03;;;3.30;;
28926;SDS011;16038;47.692;9.400;2022-09-12T02:04:40;6.65;;;3.03;;
28926;SDS011;16038;47.692;9.400;2022-09-12T02:07:23;4.47;;;3.13;;
28926;SDS011;16038;47.692;9.400;2022-09-12T02:10:04;6.88;;;3.35;;
28926;SDS011;16038;47.692;9.400;2022-09-12T02:12:37;4.07;;;3.35;;
28926;SDS011;16038;47.692;9.400;2022-09-12T02:15:08;5.80;;;3.00;;
28926;SDS011;16038;47.692;9.400;2022-09-12T02:17:37;4.82;;;2.53;;
28926;SDS011;16038;47.692;9.400;2022-09-12T02:20:09;10.45;;;3.35;;
28926;SDS011;16038;47.692;9.400;2022-09-12T02:22:40;6.55;;;3.13;;
28926;SDS011;16038;47.692;9.400;2022-09-12T02:25:08;4.13;;;2.78;;
28926;SDS011;16038;47.692;9.400;2022-09-12T02:27:37;3.25;;;2.47;;
28926;SDS011;16038;47.692;9.400;2022-09-12T02:30:16;5.25;;;2.90;;
28926;SDS011;16038;47.692;9.400;2022-09-12T02:33:05;6.10;;;3.35;;
28926;SDS011;16038;47.692;9.400;2022-09-12T02:35:45;5.40;;;3.55;;
28926;SDS011;16038;47.692;9.400;2022-09-12T02:40:56;5.47;;;3.95;;
28926;SDS011;16038;47.692;9.400;2022-09-12T02:43:22;8.55;;;4.30;;
28926;SDS011;16038;47.692;9.400;2022-09-12T02:45:47;8.48;;;4.47;;
28926;SDS011;16038;47.692;9.400;2022-09-12T02:48:46;8.27;;;4.68;;
28926;SDS011;16038;47.692;9.400;2022-09-12T02:51:06;6.75;;;3.95;;
28926;SDS011;16038;47.692;9.400;2022-09-12T02:53:32;6.30;;;4.00;;
28926;SDS011;16038;47.692;9.400;2022-09-12T02:55:58;9.65;;;3.70;;
28926;SDS011;16038;47.692;9.400;2022-09-12T02:58:25;4.93;;;3.90;;
28926;SDS011;16038;47.692;9.400;2022-09-12T03:01:03;6.50;;;3.75;;
28926;SDS011;16038;47.692;9.400;2022-09-12T03:09:56;6.20;;;3.15;;
28926;SDS011;16038;47.692;9.400;2022-09-12T03:12:45;6.35;;;3.20;;
28926;SDS011;16038;47.692;9.400;2022-09-12T03:18:31;5.88;;;3.25;;
28926;SDS011;16038;47.692;9.400;2022-09-12T03:21:12;3.58;;;2.60;;
28926;SDS011;16038;47.692;9.400;2022-09-12T03:26:34;9.20;;;3.35;;
28926;SDS011;16038;47.692;9.400;2022-09-12T03:29:01;8.63;;;3.40;;
28926;SDS011;16038;47.692;9.400;2022-09-12T03:31:30;3.95;;;2.70;;
28926;SDS011;16038;47.692;9.400;2022-09-12T03:33:55;4.18;;;2.80;;
28926;SDS011;16038;47.692;9.400;2022-09-12T03:36:24;5.25;;;2.40;;
28926;SDS011;16038;47.692;9.400;2022-09-12T03:38:52;9.67;;;2.67;;
28926;SDS011;16038;47.692;9.400;2022-09-12T03:41:17;5.00;;;2.78;;
28926;SDS011;16038;47.692;9.400;2022-09-12T03:43:43;7.30;;;3.10;;
28926;SDS011;16038;47.692;9.400;2022-09-12T03:46:09;5.47;;;3.00;;
28926;SDS011;16038;47.692;9.400;2022-09-12T03:48:34;6.13;;;3.10;;
28926;SDS011;16038;47.692;9.400;2022-09-12T03:51:03;4.57;;;3.40;;
28926;SDS011;16038;47.692;9.400;2022-09-12T03:53:31;9.45;;;3.38;;
28926;SDS011;16038;47.692;9.400;2022-09-12T03:55:57;3.85;;;3.00;;
28926;SDS011;16038;47.692;9.400;2022-09-12T03:58:23;6.45;;;3.20;;
28926;SDS011;16038;47.692;9.400;2022-09-12T04:00:49;6.03;;;3.05;;
28926;SDS011;16038;47.692;9.400;2022-09-12T04:03:15;6.53;;;3.20;;
28926;SDS011;16038;47.692;9.400;2022-09-12T04:05:40;4.40;;;3.00;;
28926;SDS011;16038;47.692;9.400;2022-09-12T04:08:06;6.80;;;3.00;;
28926;SDS011;16038;47.692;9.400;2022-09-12T04:10:31;5.07;;;3.10;;
28926;SDS011;16038;47.692;9.400;2022-09-12T04:12:57;4.10;;;2.72;;
28926;SDS011;16038;47.692;9.400;2022-09-12T04:15:23;9.05;;;4.10;;
28926;SDS011;16038;47.692;9.400;2022-09-12T04:17:48;5.22;;;3.40;;
28926;SDS011;16038;47.692;9.400;2022-09-12T04:20:13;5.82;;;3.22;;
28926;SDS011;16038;47.692;9.400;2022-09-12T04:22:39;8.55;;;3.17;;
28926;SDS011;16038;47.692;9.400;2022-09-12T04:25:05;6.45;;;3.25;;
28926;SDS011;16038;47.692;9.400;2022-09-12T04:27:31;6.13;;;3.47;;
28926;SDS011;16038;47.692;9.400;2022-09-12T04:29:57;5.47;;;3.30;;
28926;SDS011;16038;47.692;9.400;2022-09-12T04:32:24;4.45;;;3.70;;
28926;SDS011;16038;47.692;9.400;2022-09-12T04:34:49;4.88;;;3.88;;
28926;SDS011;16038;47.692;9.400;2022-09-12T04:37:16;4.78;;;3.20;;
28926;SDS011;16038;47.692;9.400;2022-09-12T04:39:42;6.60;;;3.33;;
28926;SDS011;16038;47.692;9.400;2022-09-12T04:42:07;5.82;;;3.25;;
28926;SDS011;16038;47.692;9.400;2022-09-12T04:44:32;4.82;;;3.15;;
28926;SDS011;16038;47.692;9.400;2022-09-12T04:46:58;4.78;;;3.33;;
28926;SDS011;16038;47.692;9.400;2022-09-12T04:49:23;9.07;;;3.85;;
28926;SDS011;16038;47.692;9.400;2022-09-12T04:51:51;5.53;;;3.72;;
28926;SDS011;16038;47.692;9.400;2022-09-12T04:54:18;8.30;;;2.92;;
28926;SDS011;16038;47.692;9.400;2022-09-12T04:56:45;5.55;;;3.47;;
28926;SDS011;16038;47.692;9.400;2022-09-12T04:59:13;6.10;;;3.60;;
28926;SDS011;16038;47.692;9.400;2022-09-12T05:01:40;9.90;;;3.47;;
28926;SDS011;16038;47.692;9.400;2022-09-12T05:04:06;10.80;;;3.83;;
28926;SDS011;16038;47.692;9.400;2022-09-12T05:06:33;7.75;;;3.67;;
28926;SDS011;16038;47.692;9.400;2022-09-12T05:09:01;5.55;;;3.97;;
28926;SDS011;16038;47.692;9.400;2022-09-12T05:11:30;6.47;;;3.80;;
28926;SDS011;16038;47.692;9.400;2022-09-12T05:13:57;5.72;;;4.60;;
28926;SDS011;16038;47.692;9.400;2022-09-12T05:16:23;7.05;;;4.40;;
28926;SDS011;16038;47.692;9.400;2022-09-12T05:18:50;5.95;;;4.22;;
28926;SDS011;16038;47.692;9.400;2022-09-12T05:21:18;6.13;;;4.30;;
28926;SDS011;16038;47.692;9.400;2022-09-12T05:23:45;6.45;;;3.50;;
28926;SDS011;16038;47.692;9.400;2022-09-12T05:26:14;6.38;;;3.55;;
28926;SDS011;16038;47.692;9.400;2022-09-12T05:28:41;6.30;;;2.72;;
28926;SDS011;16038;47.692;9.400;2022-09-12T05:31:11;8.82;;;2.67;;
28926;SDS011;16038;47.692;9.400;2022-09-12T05:33:40;3.72;;;2.50;;
28926;SDS011;16038;47.692;9.400;2022-09-12T05:36:08;5.15;;;3.05;;
28926;SDS011;16038;47.692;9.400;2022-09-12T05:38:36;4.18;;;2.50;;
28926;SDS011;16038;47.692;9.400;2022-09-12T05:41:20;3.60;;;1.90;;
28926;SDS011;16038;47.692;9.400;2022-09-12T05:43:58;3.90;;;2.25;;
28926;SDS011;16038;47.692;9.400;2022-09-12T05:46:26;3.35;;;1.90;;
28926;SDS011;16038;47.692;9.400;2022-09-12T05:48:53;3.28;;;1.60;;
28926;SDS011;16038;47.692;9.400;2022-09-12T05:51:20;3.50;;;2.20;;
28926;SDS011;16038;47.692;9.400;2022-09-12T05:53:49;4.28;;;2.40;;
28926;SDS011;16038;47.692;9.400;2022-09-12T05:56:17;6.85;;;2.60;;
28926;SDS011;16038;47.692;9.400;2022-09-12T05:58:46;4.40;;;1.90;;
28926;SDS011;16038;47.692;9.400;2022-09-12T06:01:14;2.88;;;1.73;;
28926;SDS011;16038;47.692;9.400;2022-09-12T06:03:45;2.88;;;1.90;;
28926;SDS011;16038;47.692;9.400;2022-09-12T06:06:12;4.35;;;1.80;;
28926;SDS011;16038;47.692;9.400;2022-09-12T06:08:40;3.78;;;1.98;;
28926;SDS011;16038;47.692;9.400;2022-09-12T06:11:10;6.88;;;2.00;;
28926;SDS011;16038;47.692;9.400;2022-09-12T06:13:39;4.30;;;2.40;;
28926;SDS011;16038;47.692;9.400;2022-09-12T06:16:10;9.77;;;1.98;;
28926;SDS011;16038;47.692;9.400;2022-09-12T06:18:37;4.38;;;2.30;;
28926;SDS011;16038;47.692;9.400;2022-09-12T06:21:07;3.78;;;1.75;;
28926;SDS011;16038;47.692;9.400;2022-09-12T06:23:34;4.05;;;2.00;;
28926;SDS011;16038;47.692;9.400;2022-09-12T06:26:01;3.40;;;2.10;;
28926;SDS011;16038;47.692;9.400;2022-09-12T06:28:28;3.78;;;2.60;;
28926;SDS011;16038;47.692;9.400;2022-09-12T06:30:59;4.70;;;2.72;;
28926;SDS011;16038;47.692;9.400;2022-09-12T06:33:26;6.28;;;2.70;;
28926;SDS011;16038;47.692;9.400;2022-09-12T06:35:51;4.10;;;2.83;;
28926;SDS011;16038;47.692;9.400;2022-09-12T06:38:16;2.97;;;2.33;;
28926;SDS011;16038;47.692;9.400;2022-09-12T06:40:42;10.45;;;3.08;;
28926;SDS011;16038;47.692;9.400;2022-09-12T06:43:11;3.88;;;2.80;;
28926;SDS011;16038;47.692;9.400;2022-09-12T06:45:38;4.35;;;2.88;;
28926;SDS011;16038;47.692;9.400;2022-09-12T06:48:04;10.80;;;3.05;;
28926;SDS011;16038;47.692;9.400;2022-09-12T06:50:29;3.78;;;2.67;;
28926;SDS011;16038;47.692;9.400;2022-09-12T06:52:55;4.53;;;2.80;;
28926;SDS011;16038;47.692;9.400;2022-09-12T06:55:20;7.28;;;2.55;;
28926;SDS011;16038;47.692;9.400;2022-09-12T06:57:48;3.97;;;2.60;;
28926;SDS011;16038;47.692;9.400;2022-09-12T07:00:13;5.85;;;2.50;;
28926;SDS011;16038;47.692;9.400;2022-09-12T07:02:39;7.13;;;2.80;;
28926;SDS011;16038;47.692;9.400;2022-09-12T07:05:04;4.25;;;2.42;;
28926;SDS011;16038;47.692;9.400;2022-09-12T07:07:30;4.72;;;2.40;;
28926;SDS011;16038;47.692;9.400;2022-09-12T07:09:58;5.63;;;2.78;;
28926;SDS011;16038;47.692;9.400;2022-09-12T07:12:24;6.70;;;3.70;;
28926;SDS011;16038;47.692;9.400;2022-09-12T07:14:49;6.13;;;3.38;;
28926;SDS011;16038;47.692;9.400;2022-09-12T07:17:16;6.25;;;2.97;;
28926;SDS011;16038;47.692;9.400;2022-09-12T07:19:41;4.65;;;3.33;;
28926;SDS011;16038;47.692;9.400;2022-09-12T07:22:06;5.35;;;3.33;;
28926;SDS011;16038;47.692;9.400;2022-09-12T07:24:32;7.03;;;3.03;;
28926;SDS011;16038;47.692;9.400;2022-09-12T07:26:57;4.25;;;2.80;;
28926;SDS011;16038;47.692;9.400;2022-09-12T07:29:23;6.38;;;2.30;;
28926;SDS011;16038;47.692;9.400;2022-09-12T07:31:48;3.72;;;2.63;;
28926;SDS011;16038;47.692;9.400;2022-09-12T07:34:13;4.65;;;2.10;;
28926;SDS011;16038;47.692;9.400;2022-09-12T07:36:39;3.63;;;2.53;;
28926;SDS011;16038;47.692;9.400;2022-09-12T07:39:04;6.45;;;3.38;;
28926;SDS011;16038;47.692;9.400;2022-09-12T07:41:30;3.95;;;2.85;;
28926;SDS011;16038;47.692;9.400;2022-09-12T07:44:00;4.72;;;2.72;;
28926;SDS011;16038;47.692;9.400;2022-09-12T07:46:27;9.15;;;2.72;;
28926;SDS011;16038;47.692;9.400;2022-09-12T07:48:55;5.35;;;2.38;;
28926;SDS011;16038;47.692;9.400;2022-09-12T07:51:22;5.18;;;2.17;;
28926;SDS011;16038;47.692;9.400;2022-09-12T07:53:48;6.22;;;2.60;;
28926;SDS011;16038;47.692;9.400;2022-09-12T07:56:14;3.60;;;1.80;;
28926;SDS011;16038;47.692;9.400;2022-09-12T07:58:40;2.63;;;1.67;;
28926;SDS011;16038;47.692;9.400;2022-09-12T08:03:37;7.13;;;1.40;;
28926;SDS011;16038;47.692;9.400;2022-09-12T08:06:07;3.42;;;1.48;;
28926;SDS011;16038;47.692;9.400;2022-09-12T08:08:34;2.38;;;1.40;;
28926;SDS011;16038;47.692;9.400;2022-09-12T08:11:00;3.60;;;1.30;;
28926;SDS011;16038;47.692;9.400;2022-09-12T08:13:30;3.08;;;1.50;;
28926;SDS011;16038;47.692;9.400;2022-09-12T08:15:57;2.90;;;1.50;;
28926;SDS011;16038;47.692;9.400;2022-09-12T08:18:27;2.47;;;1.50;;
28926;SDS011;16038;47.692;9.400;2022-09-12T08:21:01;2.80;;;1.55;;
28926;SDS011;16038;47.692;9.400;2022-09-12T08:23:28;3.97;;;1.70;;
28926;SDS011;16038;47.692;9.400;2022-09-12T08:26:03;2.95;;;1.10;;
28926;SDS011;16038;47.692;9.400;2022-09-12T08:28:31;3.17;;;1.38;;
28926;SDS011;16038;47.692;9.400;2022-09-12T08:31:01;3.17;;;1.30;;
28926;SDS011;16038;47.692;9.400;2022-09-12T08:33:28;8.48;;;1.50;;
28926;SDS011;16038;47.692;9.400;2022-09-12T08:36:01;3.92;;;1.15;;
28926;SDS011;16038;47.692;9.400;2022-09-12T08:38:31;2.75;;;1.33;;
28926;SDS011;16038;47.692;9.400;2022-09-12T08:46:15;1.52;;;0.98;;
28926;SDS011;16038;47.692;9.400;2022-09-12T08:48:46;3.28;;;1.38;;
28926;SDS011;16038;47.692;9.400;2022-09-12T08:51:13;6.20;;;1.23;;
28926;SDS011;16038;47.692;9.400;2022-09-12T08:53:41;3.95;;;1.30;;
28926;SDS011;16038;47.692;9.400;2022-09-12T08:56:09;4.32;;;1.13;;
28926;SDS011;16038;47.692;9.400;2022-09-12T08:58:38;3.60;;;1.00;;
28926;SDS011;16038;47.692;9.400;2022-09-12T09:01:07;2.67;;;0.98;;
28926;SDS011;16038;47.692;9.400;2022-09-12T09:11:46;2.70;;;1.30;;
28926;SDS011;16038;47.692;9.400;2022-09-12T09:23:02;3.92;;;0.90;;
28926;SDS011;16038;47.692;9.400;2022-09-12T09:25:47;3.03;;;1.10;;
28926;SDS011;16038;47.692;9.400;2022-09-12T09:28:34;2.75;;;0.90;;
28926;SDS011;16038;47.692;9.400;2022-09-12T09:31:15;3.80;;;0.98;;
28926;SDS011;16038;47.692;9.400;2022-09-12T09:33:43;3.80;;;0.82;;
28926;SDS011;16038;47.692;9.400;2022-09-12T09:38:53;3.75;;;0.88;;
28926;SDS011;16038;47.692;9.400;2022-09-12T09:46:49;2.15;;;1.02;;
28926;SDS011;16038;47.692;9.400;2022-09-12T09:49:19;4.32;;;1.65;;
28926;SDS011;16038;47.692;9.400;2022-09-12T09:51:46;4.28;;;1.25;;
28926;SDS011;16038;47.692;9.400;2022-09-12T09:54:30;2.13;;;1.30;;
28926;SDS011;16038;47.692;9.400;2022-09-12T09:57:00;5.55;;;1.27;;
28926;SDS011;16038;47.692;9.400;2022-09-12T09:59:31;4.22;;;1.20;;
28926;SDS011;16038;47.692;9.400;2022-09-12T10:04:39;4.43;;;1.10;;
28926;SDS011;16038;47.692;9.400;2022-09-12T10:07:06;2.15;;;1.10;;
28926;SDS011;16038;47.692;9.400;2022-09-12T10:09:44;3.90;;;1.00;;
28926;SDS011;16038;47.692;9.400;2022-09-12T10:12:30;2.58;;;1.50;;
28926;SDS011;16038;47.692;9.400;2022-09-12T10:14:56;3.38;;;1.20;;
28926;SDS011;16038;47.692;9.400;2022-09-12T10:20:13;3.92;;;1.17;;
28926;SDS011;16038;47.692;9.400;2022-09-12T10:23:18;3.80;;;1.02;;
28926;SDS011;16038;47.692;9.400;2022-09-12T10:25:53;3.85;;;1.10;;
28926;SDS011;16038;47.692;9.400;2022-09-12T10:28:22;4.50;;;1.20;;
28926;SDS011;16038;47.692;9.400;2022-09-12T10:30:54;2.30;;;1.20;;
28926;SDS011;16038;47.692;9.400;2022-09-12T10:33:20;5.03;;;1.30;;
28926;SDS011;16038;47.692;9.400;2022-09-12T10:35:48;3.50;;;1.00;;
28926;SDS011;16038;47.692;9.400;2022-09-12T10:38:19;2.75;;;1.27;;
28926;SDS011;16038;47.692;9.400;2022-09-12T10:40:54;4.75;;;2.00;;
28926;SDS011;16038;47.692;9.400;2022-09-12T10:45:51;9.60;;;2.08;;
28926;SDS011;16038;47.692;9.400;2022-09-12T10:48:31;2.25;;;1.40;;
28926;SDS011;16038;47.692;9.400;2022-09-12T10:50:57;5.25;;;1.45;;
28926;SDS011;16038;47.692;9.400;2022-09-12T10:53:27;4.40;;;1.35;;
28926;SDS011;16038;47.692;9.400;2022-09-12T10:58:26;7.13;;;3.37;;
28926;SDS011;16038;47.692;9.400;2022-09-12T11:07:03;4.32;;;0.80;;
28926;SDS011;16038;47.692;9.400;2022-09-12T11:18:50;3.97;;;1.63;;
28926;SDS011;16038;47.692;9.400;2022-09-12T11:29:48;3.53;;;1.27;;
28926;SDS011;16038;47.692;9.400;2022-09-12T11:40:52;1.95;;;1.20;;
28926;SDS011;16038;47.692;9.400;2022-09-12T11:46:35;3.08;;;1.13;;
28926;SDS011;16038;47.692;9.400;2022-09-12T11:51:39;1.80;;;0.90;;
28926;SDS011;16038;47.692;9.400;2022-09-12T11:57:17;2.83;;;1.50;;
28926;SDS011;16038;47.692;9.400;2022-09-12T11:59:58;1.88;;;0.98;;
28926;SDS011;16038;47.692;9.400;2022-09-12T12:07:59;6.93;;;2.08;;
28926;SDS011;16038;47.692;9.400;2022-09-12T12:12:57;5.32;;;1.83;;
28926;SDS011;16038;47.692;9.400;2022-09-12T12:15:24;3.33;;;1.20;;
28926;SDS011;16038;47.692;9.400;2022-09-12T12:20:27;4.15;;;1.80;;
28926;SDS011;16038;47.692;9.400;2022-09-12T12:22:53;5.07;;;1.55;;
28926;SDS011;16038;47.692;9.400;2022-09-12T12:25:24;11.65;;;3.28;;
28926;SDS011;16038;47.692;9.400;2022-09-12T12:28:02;7.45;;;2.55;;
28926;SDS011;16038;47.692;9.400;2022-09-12T12:43:52;6.80;;;2.17;;
28926;SDS011;16038;47.692;9.400;2022-09-12T12:46:20;2.88;;;1.13;;
28926;SDS011;16038;47.692;9.400;2022-09-12T12:51:38;9.55;;;2.80;;
28926;SDS011;16038;47.692;9.400;2022-09-12T12:57:04;3.03;;;1.20;;
28926;SDS011;16038;47.692;9.400;2022-09-12T13:00:03;3.40;;;1.25;;
28926;SDS011;16038;47.692;9.400;2022-09-12T13:05:05;4.07;;;1.92;;
28926;SDS011;16038;47.692;9.400;2022-09-12T13:07:40;2.50;;;1.15;;
28926;SDS011;16038;47.692;9.400;2022-09-12T13:10:18;7.30;;;1.50;;
28926;SDS011;16038;47.692;9.400;2022-09-12T13:12:49;4.05;;;1.17;;
28926;SDS011;16038;47.692;9.400;2022-09-12T13:18:00;1.70;;;0.90;;
28926;SDS011;16038;47.692;9.400;2022-09-12T13:20:29;3.20;;;0.90;;
28926;SDS011;16038;47.692;9.400;2022-09-12T13:22:59;7.60;;;1.60;;
28926;SDS011;16038;47.692;9.400;2022-09-12T13:25:26;4.43;;;1.52;;
28926;SDS011;16038;47.692;9.400;2022-09-12T13:30:22;5.07;;;2.10;;
28926;SDS011;16038;47.692;9.400;2022-09-12T13:32:47;2.88;;;1.10;;
28926;SDS011;16038;47.692;9.400;2022-09-12T13:36:00;1.23;;;0.82;;
28926;SDS011;16038;47.692;9.400;2022-09-12T13:40:54;4.80;;;2.28;;
28926;SDS011;16038;47.692;9.400;2022-09-12T13:43:35;4.13;;;1.20;;
28926;SDS011;16038;47.692;9.400;2022-09-12T13:46:06;3.65;;;1.20;;
28926;SDS011;16038;47.692;9.400;2022-09-12T13:48:33;4.50;;;0.82;;
28926;SDS011;16038;47.692;9.400;2022-09-12T13:50:59;4.47;;;0.68;;
28926;SDS011;16038;47.692;9.400;2022-09-12T13:53:28;2.28;;;1.00;;
28926;SDS011;16038;47.692;9.400;2022-09-12T13:55:57;1.70;;;0.80;;
28926;SDS011;16038;47.692;9.400;2022-09-12T13:58:27;1.63;;;0.80;;
28926;SDS011;16038;47.692;9.400;2022-09-12T14:01:03;1.33;;;0.70;;
28926;SDS011;16038;47.692;9.400;2022-09-12T14:03:41;6.85;;;2.05;;
28926;SDS011;16038;47.692;9.400;2022-09-12T14:06:34;2.17;;;0.73;;
28926;SDS011;16038;47.692;9.400;2022-09-12T14:09:11;5.30;;;1.27;;
28926;SDS011;16038;47.692;9.400;2022-09-12T14:11:45;1.50;;;0.70;;
28926;SDS011;16038;47.692;9.400;2022-09-12T14:14:17;4.05;;;0.93;;
28926;SDS011;16038;47.692;9.400;2022-09-12T14:16:47;5.75;;;1.85;;
28926;SDS011;16038;47.692;9.400;2022-09-12T14:19:14;1.80;;;0.80;;
28926;SDS011;16038;47.692;9.400;2022-09-12T14:21:43;6.68;;;2.05;;
28926;SDS011;16038;47.692;9.400;2022-09-12T14:24:09;5.68;;;1.48;;
28926;SDS011;16038;47.692;9.400;2022-09-12T14:26:38;1.40;;;0.60;;
28926;SDS011;16038;47.692;9.400;2022-09-12T14:29:07;2.20;;;0.70;;
28926;SDS011;16038;47.692;9.400;2022-09-12T14:31:33;4.68;;;0.93;;
28926;SDS011;16038;47.692;9.400;2022-09-12T14:34:11;2.72;;;1.05;;
28926;SDS011;16038;47.692;9.400;2022-09-12T14:36:40;4.63;;;1.17;;
28926;SDS011;16038;47.692;9.400;2022-09-12T14:41:39;3.05;;;1.05;;
28926;SDS011;16038;47.692;9.400;2022-09-12T14:44:13;7.40;;;2.88;;
28926;SDS011;16038;47.692;9.400;2022-09-12T14:46:43;2.10;;;0.60;;
28926;SDS011;16038;47.692;9.400;2022-09-12T14:51:38;3.70;;;0.77;;
28926;SDS011;16038;47.692;9.400;2022-09-12T14:59:46;0.80;;;0.52;;
28926;SDS011;16038;47.692;9.400;2022-09-12T15:04:40;1.50;;;0.77;;
28926;SDS011;16038;47.692;9.400;2022-09-12T15:07:42;3.97;;;0.80;;
28926;SDS011;16038;47.692;9.400;2022-09-12T15:10:22;7.60;;;1.85;;
28926;SDS011;16038;47.692;9.400;2022-09-12T15:15:29;2.75;;;0.70;;
28926;SDS011;16038;47.692;9.400;2022-09-12T15:17:55;3.50;;;1.38;;
28926;SDS011;16038;47.692;9.400;2022-09-12T15:20:21;5.47;;;1.63;;
28926;SDS011;16038;47.692;9.400;2022-09-12T15:22:47;3.08;;;0.90;;
28926;SDS011;16038;47.692;9.400;2022-09-12T15:25:13;5.68;;;1.50;;
28926;SDS011;16038;47.692;9.400;2022-09-12T15:27:39;1.40;;;0.60;;
28926;SDS011;16038;47.692;9.400;2022-09-12T15:30:08;10.07;;;2.60;;
28926;SDS011;16038;47.692;9.400;2022-09-12T15:32:34;5.82;;;1.48;;
28926;SDS011;16038;47.692;9.400;2022-09-12T15:35:01;3.22;;;1.10;;
28926;SDS011;16038;47.692;9.400;2022-09-12T15:37:27;5.97;;;1.85;;
28926;SDS011;16038;47.692;9.400;2022-09-12T15:39:52;4.00;;;1.92;;
28926;SDS011;16038;47.692;9.400;2022-09-12T15:42:20;2.05;;;1.00;;
28926;SDS011;16038;47.692;9.400;2022-09-12T15:44:52;3.63;;;1.25;;
28926;SDS011;16038;47.692;9.400;2022-09-12T15:47:18;12.25;;;3.97;;
28926;SDS011;16038;47.692;9.400;2022-09-12T15:49:43;1.30;;;0.68;;
28926;SDS011;16038;47.692;9.400;2022-09-12T15:52:10;3.05;;;0.80;;
28926;SDS011;16038;47.692;9.400;2022-09-12T15:54:39;2.75;;;1.02;;
28926;SDS011;16038;47.692;9.400;2022-09-12T15:57:05;3.03;;;0.70;;
28926;SDS011;16038;47.692;9.400;2022-09-12T15:59:31;1.48;;;0.60;;
28926;SDS011;16038;47.692;9.400;2022-09-12T16:01:57;1.80;;;0.55;;
28926;SDS011;16038;47.692;9.400;2022-09-12T16:04:26;0.80;;;0.50;;
28926;SDS011;16038;47.692;9.400;2022-09-12T16:06:55;2.10;;;0.70;;
28926;SDS011;16038;47.692;9.400;2022-09-12T16:09:21;1.63;;;0.55;;
28926;SDS011;16038;47.692;9.400;2022-09-12T16:11:47;7.10;;;1.48;;
28926;SDS011;16038;47.692;9.400;2022-09-12T16:14:13;3.50;;;1.35;;
28926;SDS011;16038;47.692;9.400;2022-09-12T16:16:40;4.25;;;1.13;;
28926;SDS011;16038;47.692;9.400;2022-09-12T16:19:09;3.08;;;1.00;;
28926;SDS011;16038;47.692;9.400;2022-09-12T16:21:36;5.88;;;1.98;;
28926;SDS011;16038;47.692;9.400;2022-09-12T16:24:02;2.95;;;1.10;;
28926;SDS011;16038;47.692;9.400;2022-09-12T16:26:28;4.13;;;0.80;;
28926;SDS011;16038;47.692;9.400;2022-09-12T16:28:54;2.30;;;0.73;;
28926;SDS011;16038;47.692;9.400;2022-09-12T16:31:21;5.88;;;1.05;;
28926;SDS011;16038;47.692;9.400;2022-09-12T16:33:47;3.53;;;0.60;;
28926;SDS011;16038;47.692;9.400;2022-09-12T16:36:14;3.28;;;0.60;;
28926;SDS011;16038;47.692;9.400;2022-09-12T16:38:43;8.82;;;1.83;;
28926;SDS011;16038;47.692;9.400;2022-09-12T16:41:09;8.52;;;2.55;;
28926;SDS011;16038;47.692;9.400;2022-09-12T16:43:36;8.90;;;2.75;;
28926;SDS011;16038;47.692;9.400;2022-09-12T16:46:10;15.85;;;4.10;;
28926;SDS011;16038;47.692;9.400;2022-09-12T16:48:42;20.05;;;6.00;;
28926;SDS011;16038;47.692;9.400;2022-09-12T16:51:10;16.02;;;5.07;;
28926;SDS011;16038;47.692;9.400;2022-09-12T16:53:36;12.60;;;4.38;;
28926;SDS011;16038;47.692;9.400;2022-09-12T16:56:03;11.75;;;4.38;;
28926;SDS011;16038;47.692;9.400;2022-09-12T16:58:31;4.60;;;1.38;;
28926;SDS011;16038;47.692;9.400;2022-09-12T17:01:02;4.22;;;1.15;;
28926;SDS011;16038;47.692;9.400;2022-09-12T17:03:32;11.00;;;6.32;;
28926;SDS011;16038;47.692;9.400;2022-09-12T17:08:33;5.78;;;0.80;;
28926;SDS011;16038;47.692;9.400;2022-09-12T17:11:01;1.70;;;0.80;;
28926;SDS011;16038;47.692;9.400;2022-09-12T17:13:27;11.20;;;2.67;;
28926;SDS011;16038;47.692;9.400;2022-09-12T17:15:54;6.35;;;1.48;;
28926;SDS011;16038;47.692;9.400;2022-09-12T17:18:19;6.10;;;1.30;;
28926;SDS011;16038;47.692;9.400;2022-09-12T17:20:45;3.38;;;1.63;;
28926;SDS011;16038;47.692;9.400;2022-09-12T17:23:11;3.25;;;1.77;;
28926;SDS011;16038;47.692;9.400;2022-09-12T17:25:36;5.53;;;1.35;;
28926;SDS011;16038;47.692;9.400;2022-09-12T17:28:01;1.58;;;0.88;;
28926;SDS011;16038;47.692;9.400;2022-09-12T17:30:32;3.38;;;1.00;;
28926;SDS011;16038;47.692;9.400;2022-09-12T17:32:58;2.15;;;0.93;;
28926;SDS011;16038;47.692;9.400;2022-09-12T17:35:24;4.80;;;1.00;;
28926;SDS011;16038;47.692;9.400;2022-09-12T17:37:50;2.95;;;1.23;;
28926;SDS011;16038;47.692;9.400;2022-09-12T17:40:16;1.65;;;0.90;;
28926;SDS011;16038;47.692;9.400;2022-09-12T17:42:41;3.28;;;0.82;;
28926;SDS011;16038;47.692;9.400;2022-09-12T17:45:07;2.97;;;0.70;;
28926;SDS011;16038;47.692;9.400;2022-09-12T17:47:33;1.00;;;0.50;;
28926;SDS011;16038;47.692;9.400;2022-09-12T17:49:58;4.70;;;0.65;;
28926;SDS011;16038;47.692;9.400;2022-09-12T17:52:24;1.40;;;0.60;;
28926;SDS011;16038;47.692;9.400;2022-09-12T17:54:49;1.55;;;0.60;;
28926;SDS011;16038;47.692;9.400;2022-09-12T17:57:15;4.70;;;0.80;;
28926;SDS011;16038;47.692;9.400;2022-09-12T17:59:41;4.57;;;1.25;;
28926;SDS011;16038;47.692;9.400;2022-09-12T18:02:10;2.05;;;0.88;;
28926;SDS011;16038;47.692;9.400;2022-09-12T18:04:37;2.67;;;1.10;;
28926;SDS011;16038;47.692;9.400;2022-09-12T18:07:03;2.72;;;1.00;;
28926;SDS011;16038;47.692;9.400;2022-09-12T18:09:29;6.07;;;0.90;;